Time;durP1;ratioP1;P1;durP2;ratioP2;P2;SDS_P1;SDS_P2;PMS_P1;PMS_P2;Temp;Humidity;BMP_temperature;BMP_pressure;BME280_temperature;BME280_humidity;BME280_pressure;Samples;Min_cycle;Max_cycle;Signal;HPM_P1;HPM_P2
2021/03/30 00:01:43;;;;;;;6.77;4.13;;;11.20;99.90;;;;;;5073546;28;20584;-78
2021/03/30 00:04:10;;;;;;;8.00;5.43;;;11.20;99.90;;;;;;5073952;28;20199;-77
2021/03/30 00:06:36;;;;;;;7.13;4.90;;;11.10;99.90;;;;;;5073081;28;20682;-80
2021/03/30 00:09:04;;;;;;;6.07;4.97;;;11.20;99.90;;;;;;5073506;28;20221;-81
2021/03/30 00:11:30;;;;;;;7.37;4.60;;;11.20;99.90;;;;;;5073899;28;20662;-75
2021/03/30 00:13:57;;;;;;;5.47;4.87;;;11.30;99.90;;;;;;5073491;28;20209;-76
2021/03/30 00:16:25;;;;;;;8.90;4.83;;;11.20;99.90;;;;;;5073899;28;20206;-81
2021/03/30 00:18:51;;;;;;;6.30;4.53;;;11.10;99.90;;;;;;5073017;28;20210;-80
2021/03/30 00:21:18;;;;;;;4.50;4.10;;;11.10;99.90;;;;;;5073179;28;20206;-78
2021/03/30 00:23:44;;;;;;;6.33;4.87;;;11.20;99.90;;;;;;5073048;28;20595;-80
2021/03/30 00:26:10;;;;;;;6.40;4.40;;;11.30;99.90;;;;;;5073592;28;20202;-80
2021/03/30 00:28:37;;;;;;;6.53;4.70;;;11.10;99.90;;;;;;5073085;28;20573;-78
2021/03/30 00:31:04;;;;;;;8.17;4.73;;;11.20;99.90;;;;;;5073143;28;20221;-78
2021/03/30 00:33:31;;;;;;;7.53;4.43;;;11.20;99.90;;;;;;5073627;28;20214;-78
2021/03/30 00:35:58;;;;;;;10.30;4.87;;;11.20;99.90;;;;;;5073139;28;20662;-79
2021/03/30 00:38:24;;;;;;;7.23;4.83;;;11.20;99.90;;;;;;5072968;28;20210;-79
2021/03/30 00:40:52;;;;;;;8.97;4.83;;;11.30;99.90;;;;;;5072832;28;20206;-80
2021/03/30 00:43:18;;;;;;;5.17;4.23;;;11.30;99.90;;;;;;5073313;28;20202;-80
2021/03/30 00:45:45;;;;;;;5.53;3.93;;;11.20;99.90;;;;;;5072836;28;20619;-80
2021/03/30 00:48:20;;;;;;;8.97;4.67;;;11.20;99.90;;;;;;5073073;28;20218;-82
2021/03/30 00:50:47;;;;;;;7.37;4.80;;;11.20;99.90;;;;;;5072509;28;20669;-82
2021/03/30 00:53:14;;;;;;;7.30;4.23;;;11.20;99.90;;;;;;5073206;28;20223;-77
2021/03/30 00:55:41;;;;;;;10.30;4.57;;;11.10;99.90;;;;;;5072801;28;20209;-75
2021/03/30 00:58:08;;;;;;;8.67;5.33;;;11.10;99.90;;;;;;5073229;28;20203;-76
2021/03/30 01:00:34;;;;;;;5.23;3.63;;;11.10;99.90;;;;;;5072338;28;20207;-77
2021/03/30 01:03:01;;;;;;;5.47;4.00;;;11.00;99.90;;;;;;5073455;28;20214;-78
2021/03/30 01:05:27;;;;;;;5.20;4.03;;;11.10;99.90;;;;;;5072503;28;20224;-80
2021/03/30 01:08:08;;;;;;;6.17;4.10;;;11.10;99.90;;;;;;5072887;28;20209;-80
2021/03/30 01:10:45;;;;;;;7.10;4.17;;;11.00;99.90;;;;;;5072035;28;20221;-79
2021/03/30 01:13:31;;;;;;;5.73;4.27;;;11.00;99.90;;;;;;5072515;28;20202;-79
2021/03/30 01:16:03;;;;;;;9.93;4.47;;;11.00;99.90;;;;;;5072542;28;20670;-82
2021/03/30 01:18:35;;;;;;;7.17;4.23;;;11.00;99.90;;;;;;5073068;28;20237;-80
2021/03/30 01:21:31;;;;;;;4.87;4.17;;;11.00;99.90;;;;;;5072221;28;20207;-79
2021/03/30 01:24:03;;;;;;;6.90;4.70;;;11.00;99.90;;;;;;5072312;28;20245;-77
2021/03/30 01:26:51;;;;;;;9.50;4.33;;;11.00;99.90;;;;;;5072466;28;20198;-78
2021/03/30 01:29:38;;;;;;;4.73;4.33;;;10.90;99.90;;;;;;5072149;28;20272;-79
2021/03/30 01:32:09;;;;;;;5.50;4.30;;;11.00;99.90;;;;;;5071961;28;20208;-76
2021/03/30 01:34:38;;;;;;;6.60;5.13;;;11.00;99.90;;;;;;5071003;28;20202;-77
2021/03/30 01:37:05;;;;;;;7.83;4.23;;;10.90;99.90;;;;;;5072060;28;20213;-77
2021/03/30 01:39:34;;;;;;;6.67;5.67;;;10.90;99.90;;;;;;5072313;28;20670;-76
2021/03/30 01:42:01;;;;;;;6.17;4.20;;;10.90;99.90;;;;;;5072471;28;20202;-81
2021/03/30 01:44:30;;;;;;;6.63;4.87;;;11.00;99.90;;;;;;5072092;28;20212;-78
2021/03/30 01:47:01;;;;;;;12.47;5.10;;;11.00;99.90;;;;;;5071160;28;20214;-81
2021/03/30 01:49:29;;;;;;;6.60;4.93;;;10.90;99.90;;;;;;5071702;28;20599;-81
2021/03/30 01:51:57;;;;;;;7.00;4.60;;;11.00;99.90;;;;;;5071474;28;20260;-81
2021/03/30 01:54:24;;;;;;;6.23;4.63;;;11.00;99.90;;;;;;5071733;28;20332;-79
2021/03/30 01:56:54;;;;;;;9.77;5.97;;;11.00;99.90;;;;;;5071142;28;20562;-78
2021/03/30 01:59:21;;;;;;;7.80;5.13;;;11.00;99.90;;;;;;5071568;28;20206;-80
2021/03/30 02:01:50;;;;;;;6.60;5.73;;;11.10;99.90;;;;;;5071147;28;20210;-80
2021/03/30 02:04:19;;;;;;;6.13;4.70;;;10.90;99.90;;;;;;5071088;28;20206;-77
2021/03/30 02:06:49;;;;;;;9.07;6.13;;;10.90;99.90;;;;;;5071308;28;20202;-83
2021/03/30 02:09:20;;;;;;;7.40;5.13;;;11.00;99.90;;;;;;5071519;28;20236;-77
2021/03/30 02:11:50;;;;;;;9.07;4.63;;;11.10;99.90;;;;;;5071011;28;20670;-80
2021/03/30 02:14:16;;;;;;;5.80;4.30;;;11.00;99.90;;;;;;5071956;28;20255;-88
2021/03/30 02:16:51;;;;;;;6.00;4.80;;;11.10;99.90;;;;;;5071412;28;20271;-80
2021/03/30 02:19:21;;;;;;;9.03;5.40;;;11.10;99.90;;;;;;5071392;28;20239;-86
2021/03/30 02:21:53;;;;;;;4.97;4.53;;;11.10;99.90;;;;;;5071185;28;20572;-79
2021/03/30 02:24:21;;;;;;;5.17;4.20;;;11.10;99.90;;;;;;5071214;28;20206;-81
2021/03/30 02:26:50;;;;;;;6.27;4.63;;;11.00;99.90;;;;;;5070691;28;20214;-76
2021/03/30 02:29:21;;;;;;;7.57;5.20;;;11.00;99.90;;;;;;5070951;28;20240;-76
2021/03/30 02:31:52;;;;;;;7.60;4.80;;;11.10;99.90;;;;;;5070501;28;20563;-76
2021/03/30 02:34:19;;;;;;;5.43;4.87;;;11.10;99.90;;;;;;5070744;28;20224;-80
2021/03/30 02:36:47;;;;;;;5.57;4.40;;;11.00;99.90;;;;;;5070400;28;20267;-80
2021/03/30 02:39:15;;;;;;;6.30;4.60;;;11.00;99.90;;;;;;5070797;28;20214;-79
2021/03/30 02:41:43;;;;;;;9.90;5.80;;;11.00;99.90;;;;;;5070448;28;20240;-78
2021/03/30 02:44:12;;;;;;;6.23;5.47;;;11.00;99.90;;;;;;5070958;28;20228;-78
2021/03/30 02:46:40;;;;;;;8.80;3.80;;;11.00;99.90;;;;;;5070027;28;20275;-78
2021/03/30 02:49:11;;;;;;;5.63;4.60;;;11.00;99.90;;;;;;5070865;28;20230;-80
2021/03/30 02:51:39;;;;;;;11.00;5.43;;;11.10;99.90;;;;;;5070033;28;20665;-79
2021/03/30 02:54:08;;;;;;;5.53;4.73;;;11.00;99.90;;;;;;5071001;28;20578;-75
2021/03/30 02:56:36;;;;;;;8.63;5.00;;;10.90;99.90;;;;;;5070244;28;20221;-75
2021/03/30 02:59:03;;;;;;;5.13;4.10;;;10.90;99.90;;;;;;5069485;28;20206;-75
2021/03/30 03:01:32;;;;;;;6.77;4.90;;;10.90;99.90;;;;;;5070215;28;20206;-76
2021/03/30 03:04:00;;;;;;;6.13;4.80;;;10.90;99.90;;;;;;5070666;28;20210;-76
2021/03/30 03:06:28;;;;;;;7.37;4.43;;;10.80;99.90;;;;;;5070335;28;20210;-75
2021/03/30 03:08:56;;;;;;;5.20;4.70;;;10.70;99.90;;;;;;5070306;28;20206;-78
2021/03/30 03:11:24;;;;;;;8.30;5.30;;;10.80;99.90;;;;;;5070535;28;20210;-77
2021/03/30 03:13:52;;;;;;;7.40;5.30;;;10.70;99.90;;;;;;5070194;28;20202;-78
2021/03/30 03:16:20;;;;;;;8.60;5.77;;;10.80;99.90;;;;;;5069271;28;20209;-78
2021/03/30 03:18:48;;;;;;;5.60;5.03;;;10.80;99.90;;;;;;5070032;28;20206;-80
2021/03/30 03:21:17;;;;;;;7.60;5.70;;;10.70;99.90;;;;;;5070638;28;20221;-81
2021/03/30 03:23:45;;;;;;;11.87;6.33;;;10.70;99.90;;;;;;5070604;28;20211;-79
2021/03/30 03:26:13;;;;;;;10.63;6.20;;;10.80;99.90;;;;;;5070133;28;20671;-73
2021/03/30 03:28:41;;;;;;;12.30;5.43;;;10.70;99.90;;;;;;5070180;28;20202;-75
2021/03/30 03:31:07;;;;;;;7.23;6.50;;;10.70;99.90;;;;;;5070038;28;20210;-75
2021/03/30 03:33:34;;;;;;;8.80;5.93;;;10.60;99.90;;;;;;5055841;28;20214;-77
2021/03/30 03:36:08;;;;;;;9.03;7.03;;;10.60;99.90;;;;;;5070868;28;20587;-78
2021/03/30 03:38:35;;;;;;;14.23;7.23;;;10.60;99.90;;;;;;5069674;28;20255;-75
2021/03/30 03:41:04;;;;;;;8.27;5.63;;;10.60;99.90;;;;;;5070640;28;20213;-76
2021/03/30 03:43:31;;;;;;;9.03;6.27;;;10.60;99.90;;;;;;5070453;28;20275;-78
2021/03/30 03:45:58;;;;;;;8.33;6.00;;;10.60;99.90;;;;;;5069916;28;20217;-78
2021/03/30 03:48:24;;;;;;;8.40;6.50;;;10.60;99.90;;;;;;5069780;28;20608;-80
2021/03/30 03:50:53;;;;;;;9.53;6.53;;;10.60;99.90;;;;;;5069581;28;20721;-79
2021/03/30 03:53:20;;;;;;;9.93;6.30;;;10.60;99.90;;;;;;5069768;28;20210;-78
2021/03/30 03:55:50;;;;;;;8.13;7.27;;;10.60;99.90;;;;;;5069588;28;20205;-78
2021/03/30 03:58:23;;;;;;;11.80;7.47;;;10.70;99.90;;;;;;5070022;28;20210;-77
2021/03/30 04:00:50;;;;;;;8.70;7.00;;;10.60;99.90;;;;;;5069670;28;20344;-79
2021/03/30 04:03:22;;;;;;;11.47;6.20;;;10.70;99.90;;;;;;5070116;28;20217;-76
2021/03/30 04:05:58;;;;;;;7.87;6.37;;;10.70;99.90;;;;;;5069384;28;20194;-76
2021/03/30 04:08:29;;;;;;;8.73;7.30;;;10.60;99.90;;;;;;5069695;28;20673;-76
2021/03/30 04:10:59;;;;;;;8.27;6.57;;;10.60;99.90;;;;;;5069361;28;20214;-77
2021/03/30 04:13:31;;;;;;;6.97;6.23;;;10.60;99.90;;;;;;5070034;28;20279;-75
2021/03/30 04:16:01;;;;;;;7.23;5.33;;;10.60;99.90;;;;;;5067598;28;20693;-79
2021/03/30 04:18:28;;;;;;;9.10;6.90;;;10.60;99.90;;;;;;5069945;28;20289;-80
2021/03/30 04:20:54;;;;;;;8.27;6.27;;;10.50;99.90;;;;;;5069471;28;20214;-82
2021/03/30 04:23:24;;;;;;;12.00;7.57;;;10.60;99.90;;;;;;5069923;28;20210;-77
2021/03/30 04:25:51;;;;;;;14.10;6.57;;;10.60;99.90;;;;;;5069225;28;20210;-75
2021/03/30 04:28:18;;;;;;;9.33;6.33;;;10.60;99.90;;;;;;5071877;28;20205;-77
2021/03/30 04:30:46;;;;;;;7.50;6.57;;;10.60;99.90;;;;;;5073238;28;20739;-75
2021/03/30 04:33:12;;;;;;;7.47;5.97;;;10.60;99.90;;;;;;5073063;28;20206;-78
2021/03/30 04:35:39;;;;;;;9.80;7.03;;;10.50;99.90;;;;;;5073088;28;20202;-81
2021/03/30 04:38:05;;;;;;;9.50;6.50;;;10.50;99.90;;;;;;5072855;28;20751;-77
2021/03/30 04:40:32;;;;;;;8.37;6.87;;;10.50;99.90;;;;;;5073596;28;20232;-80
2021/03/30 04:42:59;;;;;;;8.37;5.97;;;10.50;99.90;;;;;;5073334;28;20251;-79
2021/03/30 04:45:26;;;;;;;9.87;6.93;;;10.50;99.90;;;;;;5073288;28;20206;-79
2021/03/30 04:47:53;;;;;;;10.13;6.30;;;10.50;99.90;;;;;;5072437;28;21122;-77
2021/03/30 04:50:20;;;;;;;8.60;7.20;;;10.40;99.90;;;;;;5073098;28;20359;-80
2021/03/30 04:52:46;;;;;;;8.63;7.47;;;10.40;99.90;;;;;;5071738;28;20210;-79
2021/03/30 04:55:14;;;;;;;6.90;6.20;;;10.30;99.90;;;;;;5072321;28;20206;-79
2021/03/30 04:57:41;;;;;;;8.13;6.30;;;10.30;99.90;;;;;;5072065;28;20206;-78
2021/03/30 05:00:09;;;;;;;13.60;8.53;;;10.30;99.90;;;;;;5070858;28;20202;-78
2021/03/30 05:02:35;;;;;;;10.67;7.57;;;10.30;99.90;;;;;;5071282;28;20202;-75
2021/03/30 05:05:03;;;;;;;8.13;7.27;;;10.40;99.90;;;;;;5072647;28;20217;-77
2021/03/30 05:07:29;;;;;;;9.73;5.93;;;10.40;99.90;;;;;;5072340;28;20248;-78
2021/03/30 05:09:56;;;;;;;10.53;7.97;;;10.40;99.90;;;;;;5072242;28;20721;-78
2021/03/30 05:12:24;;;;;;;8.43;7.03;;;10.30;99.90;;;;;;5072117;28;20221;-77
2021/03/30 05:14:51;;;;;;;9.87;7.17;;;10.30;99.90;;;;;;5072447;28;20206;-79
2021/03/30 05:17:17;;;;;;;9.00;7.13;;;10.20;99.90;;;;;;5072489;28;20284;-78
2021/03/30 05:19:44;;;;;;;9.20;7.33;;;10.20;99.90;;;;;;5072181;28;20214;-81
2021/03/30 05:22:12;;;;;;;10.27;7.93;;;10.30;99.90;;;;;;5072707;28;20297;-82
2021/03/30 05:24:38;;;;;;;12.43;7.60;;;10.20;99.90;;;;;;5072008;28;20202;-80
2021/03/30 05:27:06;;;;;;;9.87;8.33;;;10.20;99.90;;;;;;5072208;28;20221;-81
2021/03/30 05:29:42;;;;;;;8.93;7.67;;;10.10;99.90;;;;;;5072344;28;20226;-76
2021/03/30 05:32:09;;;;;;;9.73;8.20;;;10.20;99.90;;;;;;5072071;28;20202;-76
2021/03/30 05:34:36;;;;;;;11.13;8.23;;;10.20;99.90;;;;;;5071837;28;20198;-77
2021/03/30 05:37:03;;;;;;;11.10;8.10;;;10.30;99.90;;;;;;5072460;28;20674;-73
2021/03/30 05:39:33;;;;;;;10.23;8.47;;;10.20;99.90;;;;;;5071596;28;20580;-79
2021/03/30 05:42:00;;;;;;;9.80;8.80;;;10.20;99.90;;;;;;5071131;28;20266;-77
2021/03/30 05:44:27;;;;;;;10.03;9.03;;;10.30;99.90;;;;;;5072509;28;20680;-75
2021/03/30 05:47:09;;;;;;;9.10;7.30;;;10.20;99.90;;;;;;5058483;28;20214;-81
2021/03/30 05:49:37;;;;;;;10.40;8.27;;;10.30;99.90;;;;;;5071619;28;20232;-77
2021/03/30 05:52:06;;;;;;;15.37;9.00;;;10.30;99.90;;;;;;5072478;28;20234;-73
2021/03/30 05:54:35;;;;;;;12.30;7.43;;;10.40;99.90;;;;;;5072001;28;20596;-72
2021/03/30 05:57:04;;;;;;;13.07;7.97;;;10.40;99.90;;;;;;5071211;28;20582;-78
2021/03/30 05:59:32;;;;;;;10.60;7.60;;;10.40;99.90;;;;;;5071332;28;20221;-75
2021/03/30 06:02:01;;;;;;;15.43;8.73;;;10.30;99.90;;;;;;5070650;28;20206;-79
2021/03/30 06:04:28;;;;;;;8.10;7.23;;;10.40;99.90;;;;;;5071973;28;20202;-80
2021/03/30 06:06:55;;;;;;;12.40;8.17;;;10.40;99.90;;;;;;5071158;28;20697;-76
2021/03/30 06:09:21;;;;;;;8.97;7.17;;;10.40;99.90;;;;;;5070617;28;20226;-79
2021/03/30 06:11:49;;;;;;;11.50;8.17;;;10.40;99.90;;;;;;5070879;28;20294;-77
2021/03/30 06:14:39;;;;;;;12.07;8.03;;;10.50;99.90;;;;;;5071283;28;20202;-78
2021/03/30 06:17:07;;;;;;;9.67;7.50;;;10.50;99.90;;;;;;5071551;28;20206;-82
2021/03/30 06:19:47;;;;;;;10.70;9.10;;;10.60;99.90;;;;;;5071255;28;20214;-84
2021/03/30 06:22:14;;;;;;;9.87;8.47;;;10.60;99.90;;;;;;5071287;28;20206;-76
2021/03/30 06:24:43;;;;;;;11.93;8.40;;;10.70;99.90;;;;;;5070962;28;20252;-84
2021/03/30 06:27:28;;;;;;;11.83;8.77;;;10.60;99.90;;;;;;5071580;28;20286;-77
2021/03/30 06:29:57;;;;;;;11.50;8.93;;;10.70;99.90;;;;;;5057385;28;20234;-78
2021/03/30 06:32:25;;;;;;;14.77;9.03;;;10.70;99.90;;;;;;5071231;28;20591;-80
2021/03/30 06:34:57;;;;;;;9.83;8.80;;;10.70;99.90;;;;;;5070832;28;20562;-79
2021/03/30 06:37:32;;;;;;;19.10;9.83;;;10.80;99.90;;;;;;5070987;28;20202;-79
2021/03/30 06:40:00;;;;;;;14.10;8.87;;;10.80;99.90;;;;;;5068418;28;20209;-77
2021/03/30 06:42:37;;;;;;;12.93;9.63;;;10.90;99.90;;;;;;5069575;28;20210;-75
2021/03/30 06:45:10;;;;;;;11.23;8.23;;;11.00;99.90;;;;;;5069929;28;20209;-75
2021/03/30 06:47:37;;;;;;;16.00;8.80;;;11.00;99.90;;;;;;5070358;28;20241;-75
2021/03/30 06:50:09;;;;;;;9.83;7.97;;;11.10;99.90;;;;;;5070237;28;20234;-75
2021/03/30 06:52:37;;;;;;;9.63;8.50;;;11.20;99.90;;;;;;5070197;28;20216;-76
2021/03/30 06:55:05;;;;;;;13.63;8.97;;;11.20;99.90;;;;;;5069093;28;20603;-74
2021/03/30 06:57:38;;;;;;;14.80;10.23;;;12.40;99.90;;;;;;5068314;28;20960;-75
2021/03/30 07:00:11;;;;;;;13.30;9.30;;;11.30;99.90;;;;;;5070149;28;20205;-76
2021/03/30 07:02:41;;;;;;;9.77;8.50;;;11.40;99.90;;;;;;5070126;28;20563;-75
2021/03/30 07:05:20;;;;;;;9.70;7.63;;;11.40;99.90;;;;;;5068091;28;20206;-76
2021/03/30 07:07:51;;;;;;;11.90;7.17;;;11.50;99.90;;;;;;5069302;28;20206;-75
2021/03/30 07:10:19;;;;;;;11.07;8.67;;;11.70;99.90;;;;;;5070577;28;20218;-76
2021/03/30 07:12:49;;;;;;;15.47;8.30;;;11.70;99.90;;;;;;5069921;28;20234;-74
2021/03/30 07:15:17;;;;;;;12.60;7.27;;;12.00;99.90;;;;;;5070353;28;20237;-76
2021/03/30 07:17:47;;;;;;;12.40;7.73;;;13.60;99.90;;;;;;5069912;28;20207;-76
2021/03/30 07:20:17;;;;;;;8.10;6.97;;;;;;;;;;5068353;28;20213;-76
2021/03/30 07:22:50;;;;;;;11.17;6.83;;;11.80;99.90;;;;;;5067753;28;20205;-78
2021/03/30 07:25:21;;;;;;;9.40;6.53;;;12.00;99.90;;;;;;5069727;28;20281;-77
2021/03/30 07:27:53;;;;;;;7.93;7.07;;;12.10;99.90;;;;;;5067044;28;20670;-78
2021/03/30 07:30:22;;;;;;;8.63;7.07;;;12.30;99.90;;;;;;5068025;28;20619;-77
2021/03/30 07:33:04;;;;;;;8.83;7.27;;;12.30;99.90;;;;;;5068151;28;20206;-76
2021/03/30 07:35:33;;;;;;;11.23;6.80;;;12.40;99.90;;;;;;5068585;28;20213;-76
2021/03/30 07:38:07;;;;;;;10.27;6.70;;;12.40;99.90;;;;;;5068081;28;20237;-78
2021/03/30 07:40:37;;;;;;;7.97;6.87;;;12.60;99.90;;;;;;5069878;28;20210;-76
2021/03/30 07:43:06;;;;;;;10.03;6.13;;;12.70;99.90;;;;;;5069654;28;20289;-76
2021/03/30 07:45:36;;;;;;;12.00;6.50;;;12.70;99.90;;;;;;5069369;28;20218;-75
2021/03/30 07:48:03;;;;;;;6.07;5.33;;;12.70;99.90;;;;;;5069666;28;20210;-77
2021/03/30 07:50:49;;;;;;;10.27;6.17;;;12.90;99.90;;;;;;5070202;28;20279;-77
2021/03/30 07:53:41;;;;;;;9.80;6.20;;;12.80;99.90;;;;;;5066554;28;20210;-78
2021/03/30 07:56:09;;;;;;;9.03;5.30;;;13.00;99.90;;;;;;5070022;28;20205;-79
2021/03/30 07:58:39;;;;;;;6.63;5.67;;;13.30;99.90;;;;;;5069528;28;20210;-77
2021/03/30 08:01:05;;;;;;;11.60;6.13;;;13.30;99.90;;;;;;5069677;28;20657;-77
2021/03/30 08:03:34;;;;;;;7.10;5.30;;;13.20;99.90;;;;;;5071310;28;20203;-77
2021/03/30 08:06:26;;;;;;;6.40;5.00;;;13.20;99.90;;;;;;5073642;28;20207;-77
2021/03/30 08:08:58;;;;;;;4.87;4.37;;;13.40;99.90;;;;;;5073042;28;20263;-79
2021/03/30 08:11:48;;;;;;;6.83;5.33;;;13.60;99.90;;;;;;5073896;28;20241;-81
2021/03/30 08:14:40;;;;;;;5.33;4.53;;;13.80;99.90;;;;;;5073589;28;20202;-79
2021/03/30 08:17:09;;;;;;;5.80;5.20;;;13.80;99.90;;;;;;5073238;28;20202;-79
2021/03/30 08:19:36;;;;;;;10.67;5.27;;;14.00;99.90;;;;;;5072158;28;20259;-79
2021/03/30 08:22:05;;;;;;;8.60;5.15;;;14.30;99.90;;;;;;5073881;28;20620;-77
2021/03/30 08:24:57;;;;;;;6.13;4.73;;;14.30;99.90;;;;;;5073695;28;20202;-79
2021/03/30 08:27:39;;;;;;;5.43;4.17;;;14.20;99.90;;;;;;5073630;28;20583;-78
2021/03/30 08:30:14;;;;;;;6.83;4.87;;;14.30;99.90;;;;;;5061185;28;20252;-74
2021/03/30 08:32:45;;;;;;;6.23;4.80;;;14.30;99.90;;;;;;5072746;28;20214;-78
2021/03/30 08:35:13;;;;;;;12.07;4.77;;;14.60;99.90;;;;;;5072129;28;20198;-78
2021/03/30 08:37:42;;;;;;;5.78;4.55;;;14.80;99.90;;;;;;5072430;28;20232;-77
2021/03/30 08:40:42;;;;;;;7.10;4.35;;;15.00;99.90;;;;;;5073488;28;20212;-79
2021/03/30 08:43:26;;;;;;;6.85;4.03;;;14.90;99.90;;;;;;5073196;28;20198;-77
2021/03/30 08:46:05;;;;;;;11.43;4.03;;;15.10;99.90;;;;;;5071452;28;20568;-75
2021/03/30 08:48:34;;;;;;;7.10;4.65;;;15.10;99.90;;;;;;5070132;28;20232;-75
2021/03/30 08:51:02;;;;;;;9.20;4.45;;;15.40;99.90;;;;;;5065395;28;20234;-78
2021/03/30 08:53:30;;;;;;;8.18;4.10;;;15.50;99.90;;;;;;5072694;28;20693;-74
2021/03/30 08:56:03;;;;;;;6.70;3.90;;;15.30;99.90;;;;;;5071641;28;20202;-75
2021/03/30 08:58:32;;;;;;;7.60;4.45;;;15.60;99.90;;;;;;5071730;28;20670;-73
2021/03/30 09:00:58;;;;;;;4.65;3.53;;;16.00;99.90;;;;;;5072710;28;20209;-75
2021/03/30 09:03:27;;;;;;;7.40;4.70;;;17.50;99.90;;;;;;5072450;28;20222;-74
2021/03/30 09:05:54;;;;;;;5.57;4.22;;;16.80;99.90;;;;;;5072032;28;20207;-74
2021/03/30 09:08:42;;;;;;;7.60;3.90;;;17.00;99.90;;;;;;5072354;28;20202;-75
2021/03/30 09:11:20;;;;;;;8.40;4.05;;;17.40;99.90;;;;;;5072617;28;20226;-73
2021/03/30 09:14:01;;;;;;;8.55;4.72;;;19.00;99.90;;;;;;5071092;28;20584;-73
2021/03/30 09:16:27;;;;;;;6.85;3.47;;;19.30;99.90;;;;;;5060155;28;20557;-73
2021/03/30 09:19:14;;;;;;;7.82;3.45;;;18.10;99.90;;;;;;5072165;28;20209;-73
2021/03/30 09:21:41;;;;;;;4.30;3.90;;;18.90;99.90;;;;;;5062758;28;20293;-73
2021/03/30 09:24:11;;;;;;;5.18;3.70;;;21.40;99.90;;;;;;5071822;28;20209;-75
2021/03/30 09:26:40;;;;;;;5.28;4.35;;;21.70;99.90;;;;;;5071664;28;20210;-73
2021/03/30 09:29:08;;;;;;;4.82;3.70;;;21.70;99.90;;;;;;5071858;28;20696;-72
2021/03/30 09:31:35;;;;;;;4.68;3.05;;;20.90;99.90;;;;;;5071532;28;20283;-73
2021/03/30 09:34:01;;;;;;;4.85;3.38;;;21.30;99.90;;;;;;5071155;28;20218;-73
2021/03/30 09:36:29;;;;;;;3.45;3.08;;;21.40;99.90;;;;;;5070890;28;20206;-73
2021/03/30 09:38:57;;;;;;;5.50;3.47;;;22.30;99.90;;;;;;5071629;28;20202;-76
2021/03/30 09:41:41;;;;;;;6.55;3.90;;;21.70;99.90;;;;;;5071860;28;20229;-74
2021/03/30 09:44:08;;;;;;;7.18;3.40;;;22.00;99.90;;;;;;5071751;28;20685;-74
2021/03/30 09:46:35;;;;;;;6.43;3.47;;;22.90;99.90;;;;;;5071205;28;20612;-73
2021/03/30 09:49:04;;;;;;;6.35;3.75;;;22.10;99.90;;;;;;5072181;28;20575;-76
2021/03/30 09:51:32;;;;;;;5.40;3.50;;;22.10;99.90;;;;;;5072095;28;20320;-78
2021/03/30 09:53:58;;;;;;;5.47;2.50;;;20.90;99.90;;;;;;5072066;28;20286;-76
2021/03/30 09:56:29;;;;;;;5.82;3.55;;;20.60;99.90;;;;;;5071519;28;20209;-78
2021/03/30 09:58:56;;;;;;;5.28;2.80;;;20.90;99.90;;;;;;5071276;28;20267;-76
2021/03/30 10:01:23;;;;;;;5.18;3.47;;;22.30;99.90;;;;;;5071300;28;20214;-76
2021/03/30 10:03:51;;;;;;;4.55;3.53;;;21.80;99.90;;;;;;5070442;28;20202;-78
2021/03/30 10:06:18;;;;;;;3.92;3.33;;;22.80;99.90;;;;;;5070576;28;20589;-77
2021/03/30 10:08:47;;;;;;;3.88;3.45;;;22.70;99.90;;;;;;5069714;28;20272;-75
2021/03/30 10:11:25;;;;;;;6.50;3.97;;;23.60;99.90;;;;;;5071187;28;20229;-76
2021/03/30 10:13:52;;;;;;;4.57;3.05;;;22.20;99.90;;;;;;5070486;28;20274;-75
2021/03/30 10:16:19;;;;;;;8.10;3.58;;;23.20;99.90;;;;;;5071296;28;20232;-75
2021/03/30 10:18:46;;;;;;;7.20;3.42;;;23.20;99.90;;;;;;5070369;28;20210;-72
2021/03/30 10:21:16;;;;;;;4.80;2.78;;;22.40;99.90;;;;;;5069775;28;20264;-76
2021/03/30 10:23:44;;;;;;;4.30;3.28;;;22.40;99.90;;;;;;5065015;28;20268;-75
2021/03/30 10:26:13;;;;;;;5.65;3.42;;;23.20;99.90;;;;;;5070479;28;20666;-75
2021/03/30 10:28:41;;;;;;;6.15;3.55;;;22.90;99.90;;;;;;5070779;28;20203;-75
2021/03/30 10:31:13;;;;;;;4.55;3.25;;;24.00;99.90;;;;;;5070498;28;20230;-74
2021/03/30 10:33:41;;;;;;;4.32;2.97;;;23.10;99.90;;;;;;5070476;28;20347;-75
2021/03/30 10:36:09;;;;;;;3.58;2.72;;;20.30;99.90;;;;;;5070399;28;20206;-75
2021/03/30 10:38:37;;;;;;;5.63;2.88;;;18.80;99.90;;;;;;5070573;28;20210;-76
2021/03/30 10:41:05;;;;;;;4.05;3.60;;;18.30;99.90;;;;;;5070654;28;20210;-75
2021/03/30 10:43:32;;;;;;;3.65;3.10;;;18.60;99.90;;;;;;5071247;28;20271;-73
2021/03/30 10:45:59;;;;;;;6.32;4.07;;;18.80;99.90;;;;;;5070996;28;20236;-74
2021/03/30 10:48:26;;;;;;;6.32;2.90;;;18.70;99.90;;;;;;5070501;28;20222;-74
2021/03/30 10:50:54;;;;;;;4.40;2.92;;;18.80;99.90;;;;;;5069843;28;20238;-75
2021/03/30 10:53:21;;;;;;;6.28;3.13;;;18.60;99.90;;;;;;5070580;28;20301;-75
2021/03/30 10:55:48;;;;;;;3.88;2.70;;;18.80;99.90;;;;;;5070476;28;20218;-73
2021/03/30 10:58:16;;;;;;;4.38;3.50;;;18.90;99.90;;;;;;5070269;28;20202;-75
2021/03/30 11:00:43;;;;;;;6.35;3.05;;;18.90;99.90;;;;;;5070058;28;20213;-76
2021/03/30 11:03:10;;;;;;;4.85;2.95;;;19.30;99.90;;;;;;5070271;28;20198;-75
2021/03/30 11:05:37;;;;;;;6.72;3.17;;;19.20;99.90;;;;;;5068937;28;20201;-75
2021/03/30 11:08:04;;;;;;;4.53;3.10;;;19.40;99.90;;;;;;5070243;28;20206;-74
2021/03/30 11:10:32;;;;;;;4.22;3.47;;;19.20;99.90;;;;;;5069496;28;20234;-74
2021/03/30 11:12:59;;;;;;;4.20;2.70;;;19.40;99.90;;;;;;5070841;28;20287;-75
2021/03/30 11:15:26;;;;;;;5.05;3.00;;;19.00;99.90;;;;;;5067907;28;20217;-79
2021/03/30 11:17:54;;;;;;;9.13;3.53;;;19.10;99.90;;;;;;5068141;28;20579;-74
2021/03/30 11:20:21;;;;;;;5.57;3.30;;;19.60;99.90;;;;;;5069935;28;20248;-73
2021/03/30 11:22:49;;;;;;;6.95;2.88;;;19.50;99.90;;;;;;5069612;28;20198;-73
2021/03/30 11:25:16;;;;;;;5.22;2.72;;;19.50;99.90;;;;;;5069825;28;20606;-74
2021/03/30 11:27:46;;;;;;;6.38;2.83;;;19.70;99.90;;;;;;5068124;28;20210;-71
2021/03/30 11:30:16;;;;;;;2.65;2.45;;;19.60;99.90;;;;;;5066942;28;20267;-73
2021/03/30 11:32:47;;;;;;;4.03;2.83;;;19.70;99.90;;;;;;5067655;28;20241;-74
2021/03/30 11:35:17;;;;;;;4.60;3.08;;;19.50;99.90;;;;;;5068923;28;20202;-73
2021/03/30 11:37:49;;;;;;;4.97;2.47;;;19.50;99.90;;;;;;5071068;28;20201;-74
2021/03/30 11:40:16;;;;;;;6.85;3.25;;;19.40;99.90;;;;;;5074305;28;20209;-75
2021/03/30 11:42:43;;;;;;;4.57;2.65;;;19.50;99.90;;;;;;5073725;28;20206;-74
2021/03/30 11:45:10;;;;;;;4.25;2.95;;;19.20;99.90;;;;;;5073935;28;20742;-75
2021/03/30 11:47:37;;;;;;;4.60;3.45;;;19.50;99.90;;;;;;5073731;28;20225;-75
2021/03/30 11:50:06;;;;;;;6.05;2.50;;;19.40;99.90;;;;;;5073669;28;20283;-76
2021/03/30 11:52:34;;;;;;;6.78;2.65;;;19.70;99.90;;;;;;5073748;28;20202;-74
2021/03/30 11:55:01;;;;;;;4.25;2.55;;;19.70;99.90;;;;;;5074241;28;20228;-74
2021/03/30 11:57:28;;;;;;;7.78;2.85;;;19.90;99.90;;;;;;5073699;28;20212;-75
2021/03/30 11:59:54;;;;;;;4.57;2.67;;;20.20;99.90;;;;;;5073344;28;20743;-74
2021/03/30 12:02:21;;;;;;;6.45;3.22;;;20.20;99.90;;;;;;5073969;28;20213;-74
2021/03/30 12:04:47;;;;;;;3.60;2.70;;;20.10;99.90;;;;;;5073429;28;20210;-74
2021/03/30 12:07:14;;;;;;;2.80;2.20;;;20.30;99.90;;;;;;5068810;28;20214;-74
2021/03/30 12:09:41;;;;;;;5.50;3.08;;;20.00;99.90;;;;;;5073539;28;20232;-74
2021/03/30 12:12:09;;;;;;;3.78;2.70;;;20.40;99.90;;;;;;5073069;28;20202;-76
2021/03/30 12:14:35;;;;;;;13.90;3.42;;;20.00;99.90;;;;;;5073440;28;20206;-76
2021/03/30 12:17:02;;;;;;;9.80;4.13;;;20.10;99.90;;;;;;5073917;28;20210;-75
2021/03/30 12:19:28;;;;;;;9.98;2.85;;;19.90;99.90;;;;;;5071754;28;20213;-75
2021/03/30 12:21:55;;;;;;;5.18;2.75;;;20.10;99.90;;;;;;5071514;28;20713;-75
2021/03/30 12:24:22;;;;;;;6.22;3.15;;;20.50;99.90;;;;;;5073287;28;20217;-75
2021/03/30 12:26:49;;;;;;;7.65;2.75;;;20.50;99.90;;;;;;5072487;28;20214;-75
2021/03/30 12:29:16;;;;;;;8.50;3.30;;;20.60;99.90;;;;;;5073186;28;20228;-74
2021/03/30 12:31:42;;;;;;;5.60;3.25;;;20.50;99.90;;;;;;5072965;28;20242;-75
2021/03/30 12:34:11;;;;;;;6.60;2.72;;;20.60;99.90;;;;;;5067055;28;20202;-76
2021/03/30 12:36:38;;;;;;;3.67;3.22;;;20.80;99.90;;;;;;5071857;28;20680;-76
2021/03/30 12:39:05;;;;;;;6.15;3.42;;;20.80;99.90;;;;;;5069282;28;20213;-74
2021/03/30 12:41:32;;;;;;;5.25;2.92;;;20.40;99.90;;;;;;5070684;28;20202;-74
2021/03/30 12:43:59;;;;;;;3.95;2.60;;;20.20;99.90;;;;;;5071157;28;20202;-75
2021/03/30 12:46:26;;;;;;;5.05;2.75;;;20.20;99.90;;;;;;5070969;28;20210;-76
2021/03/30 12:48:53;;;;;;;3.65;2.90;;;20.40;99.90;;;;;;5071209;28;20375;-75
2021/03/30 12:51:20;;;;;;;7.45;2.85;;;20.40;99.90;;;;;;5072112;28;20234;-75
2021/03/30 12:53:46;;;;;;;6.85;2.85;;;20.60;99.90;;;;;;5072295;28;20207;-75
2021/03/30 12:56:13;;;;;;;6.90;2.65;;;20.50;99.90;;;;;;5072875;28;20202;-74
2021/03/30 12:58:39;;;;;;;10.20;3.35;;;20.60;99.90;;;;;;5072483;28;20206;-75